createdAt,value
2018-11-12T00:00:29.486Z,78.00
2018-11-12T00:05:31.789Z,77.90
2018-11-12T00:10:34.058Z,77.30
2018-11-12T00:15:36.317Z,77.40
2018-11-12T00:20:38.534Z,76.90
2018-11-12T00:25:40.770Z,77.10
2018-11-12T00:30:42.998Z,77.50
2018-11-12T00:35:45.243Z,78.00
2018-11-12T00:40:47.458Z,78.10
2018-11-12T00:45:49.670Z,78.30
2018-11-12T00:50:51.922Z,78.70
2018-11-12T00:55:54.145Z,79.20
2018-11-12T01:00:56.397Z,79.10
2018-11-12T01:05:58.650Z,78.00
2018-11-12T01:11:00.902Z,77.20
2018-11-12T01:16:03.188Z,76.50
2018-11-12T01:21:05.697Z,80.70
2018-11-12T01:26:07.958Z,81.50
2018-11-12T01:31:10.248Z,80.60
2018-11-12T01:36:12.547Z,81.00
2018-11-12T01:41:14.782Z,81.80
2018-11-12T01:46:17.092Z,81.60
2018-11-12T01:51:19.326Z,81.60
2018-11-12T01:56:21.618Z,81.70
2018-11-12T02:01:23.866Z,82.00
2018-11-12T02:06:26.158Z,82.20
2018-11-12T02:11:28.452Z,82.30
2018-11-12T02:16:30.754Z,81.90
2018-11-12T02:21:33.058Z,82.20
2018-11-12T02:26:35.334Z,82.60
2018-11-12T02:31:37.597Z,83.20
2018-11-12T02:36:39.870Z,83.00
2018-11-12T02:41:42.182Z,82.70
2018-11-12T02:46:44.538Z,82.70
2018-11-12T02:51:46.881Z,83.10
2018-11-12T02:56:49.154Z,82.70
2018-11-12T03:01:51.426Z,82.80
2018-11-12T03:06:53.705Z,83.30
2018-11-12T03:11:56.004Z,84.00
2018-11-12T03:16:58.369Z,83.00
2018-11-12T03:22:00.728Z,85.90
2018-11-12T03:27:03.034Z,84.40
2018-11-12T03:32:05.374Z,83.00
2018-11-12T03:37:07.932Z,82.50
2018-11-12T03:42:10.251Z,82.50
2018-11-12T03:47:12.510Z,82.20
2018-11-12T03:52:14.757Z,82.80
2018-11-12T03:57:16.978Z,82.50
2018-11-12T04:02:19.205Z,81.80
2018-11-12T04:07:21.434Z,81.40
2018-11-12T04:12:23.671Z,81.00
2018-11-12T04:17:25.873Z,79.30
2018-11-12T04:22:28.101Z,79.20
2018-11-12T04:27:30.298Z,79.80
2018-11-12T04:32:32.491Z,80.30
2018-11-12T04:37:34.697Z,82.30
2018-11-12T04:42:37.657Z,82.10
2018-11-12T04:47:40.041Z,82.70
2018-11-12T04:52:42.295Z,83.20
2018-11-12T04:57:44.964Z,83.50
2018-11-12T05:02:47.174Z,82.70
2018-11-12T05:07:49.419Z,82.50
2018-11-12T05:12:52.207Z,82.70
2018-11-12T05:17:54.450Z,83.80
2018-11-12T05:22:56.698Z,83.80
2018-11-12T05:27:58.914Z,82.60
2018-11-12T05:33:01.136Z,82.60
2018-11-12T05:38:03.726Z,82.80
2018-11-12T05:43:05.946Z,82.90
2018-11-12T05:48:08.175Z,82.50
2018-11-12T05:53:10.401Z,83.70
2018-11-12T05:58:12.684Z,84.00
2018-11-12T06:03:14.891Z,84.50
2018-11-12T06:08:17.129Z,84.60
2018-11-12T06:13:19.350Z,86.00
2018-11-12T06:18:21.577Z,84.50
2018-11-12T06:23:23.790Z,86.00
2018-11-12T06:28:25.998Z,83.70
2018-11-12T06:33:28.222Z,84.10
2018-11-12T06:38:30.426Z,84.20
2018-11-12T06:43:32.638Z,85.00
2018-11-12T06:48:34.852Z,83.90
2018-11-12T06:53:37.058Z,84.30
2018-11-12T06:58:39.340Z,83.30
2018-11-12T07:03:41.516Z,83.50
2018-11-12T07:08:43.746Z,82.00
2018-11-12T07:13:45.965Z,82.10
2018-11-12T07:19:06.090Z,82.20
2018-11-12T07:24:08.302Z,78.50
2018-11-12T07:29:10.542Z,78.40
2018-11-12T07:34:12.773Z,78.80
2018-11-12T07:39:15.357Z,78.40
2018-11-12T07:44:17.614Z,77.60
2018-11-12T07:49:19.866Z,77.20
2018-11-12T07:54:22.131Z,75.90
2018-11-12T07:59:28.358Z,76.60
2018-11-12T08:04:30.656Z,77.70
2018-11-12T08:09:32.891Z,78.40
2018-11-12T08:14:35.205Z,79.30
2018-11-12T08:19:37.364Z,81.30
2018-11-12T08:24:39.679Z,80.90
2018-11-12T08:29:43.031Z,77.20
2018-11-12T08:34:45.185Z,73.30
2018-11-12T08:39:47.541Z,63.00
2018-11-12T08:44:49.638Z,57.00
2018-11-12T08:49:52.027Z,53.00
2018-11-12T08:54:54.396Z,50.60
2018-11-12T08:59:56.673Z,52.00
2018-11-12T09:04:58.902Z,52.80
2018-11-12T09:10:01.237Z,53.40
2018-11-12T09:15:03.886Z,54.10
2018-11-12T09:20:07.102Z,53.50
2018-11-12T09:25:11.691Z,55.20
2018-11-12T09:30:16.235Z,54.40
2018-11-12T09:35:19.954Z,53.80
2018-11-12T09:40:25.374Z,53.70
2018-11-12T09:45:27.658Z,52.30
2018-11-12T09:50:30.185Z,52.90
2018-11-12T09:55:33.086Z,52.90
2018-11-12T10:00:35.820Z,55.40
2018-11-12T10:05:39.527Z,54.50
2018-11-12T10:10:44.299Z,53.50
2018-11-12T10:15:48.319Z,51.60
2018-11-12T10:20:47.021Z,50.00
2018-11-12T10:25:49.309Z,50.70
2018-11-12T10:30:51.582Z,49.10
2018-11-12T10:35:53.830Z,49.60
2018-11-12T10:40:56.173Z,47.80
2018-11-12T10:45:58.306Z,48.80
2018-11-12T10:51:05.167Z,48.90
2018-11-12T10:56:02.852Z,49.30
2018-11-12T11:01:10.738Z,49.50
2018-11-12T11:06:13.113Z,50.40
2018-11-12T11:11:15.395Z,48.60
2018-11-12T11:16:17.649Z,47.50
2018-11-12T11:21:19.923Z,48.00
2018-11-12T11:26:22.162Z,48.20
2018-11-12T11:31:26.490Z,47.20
2018-11-12T11:36:28.751Z,47.30
2018-11-12T11:41:30.981Z,47.10
2018-11-12T11:46:33.229Z,47.00
2018-11-12T11:51:35.468Z,48.20
2018-11-12T11:56:38.025Z,49.00
2018-11-12T12:01:40.199Z,49.90
2018-11-12T12:06:42.398Z,50.20
2018-11-12T12:11:44.657Z,52.70
2018-11-12T12:16:46.907Z,52.90
2018-11-12T12:21:49.150Z,52.60
2018-11-12T12:26:51.390Z,52.20
2018-11-12T12:31:53.622Z,52.60
2018-11-12T12:36:55.932Z,52.30
2018-11-12T12:41:58.110Z,52.40
2018-11-12T12:47:00.698Z,52.90
2018-11-12T12:52:04.018Z,52.20
2018-11-12T12:57:06.316Z,51.40
2018-11-12T13:02:08.536Z,51.30
2018-11-12T13:07:10.768Z,51.30
2018-11-12T13:12:12.978Z,50.70
2018-11-12T13:17:15.210Z,50.00
2018-11-12T13:22:17.463Z,49.40
2018-11-12T13:27:19.732Z,49.20
2018-11-12T13:32:21.990Z,47.60
2018-11-12T13:37:24.302Z,45.70
2018-11-12T13:42:26.525Z,43.90
2018-11-12T13:47:28.762Z,44.70
2018-11-12T13:52:30.978Z,44.90
2018-11-12T13:57:33.210Z,44.90
2018-11-12T14:02:35.634Z,44.70
2018-11-12T14:07:37.918Z,43.50
2018-11-12T14:12:40.780Z,43.60
2018-11-12T14:17:43.309Z,43.70
2018-11-12T14:22:45.530Z,44.50
2018-11-12T14:27:49.075Z,44.80
2018-11-12T14:32:51.254Z,45.10
2018-11-12T14:37:53.470Z,46.00
2018-11-12T14:42:55.698Z,45.50
2018-11-12T14:47:57.924Z,44.80
2018-11-12T14:53:00.113Z,45.50
2018-11-12T14:58:02.357Z,45.20
2018-11-12T15:03:04.588Z,44.50
2018-11-12T15:08:06.829Z,43.90
2018-11-12T15:13:09.041Z,44.00
2018-11-12T15:18:11.284Z,44.10
2018-11-12T15:23:13.546Z,44.50
2018-11-12T15:28:15.778Z,44.20
2018-11-12T15:33:18.002Z,44.40
2018-11-12T15:38:20.326Z,44.40
2018-11-12T15:43:22.733Z,44.20
2018-11-12T15:48:24.834Z,44.30
2018-11-12T15:53:27.095Z,44.00
2018-11-12T15:58:29.342Z,44.30
2018-11-12T16:03:31.565Z,44.40
2018-11-12T16:08:33.834Z,45.10
2018-11-12T16:13:36.136Z,44.90
2018-11-12T16:18:38.290Z,45.20
2018-11-12T16:23:40.534Z,45.50
2018-11-12T16:28:42.749Z,45.70
2018-11-12T16:33:45.641Z,46.20
2018-11-12T16:38:47.906Z,45.80
2018-11-12T16:43:50.132Z,46.00
2018-11-12T16:48:52.362Z,46.00
2018-11-12T16:53:54.590Z,45.90
2018-11-12T16:58:56.798Z,46.30
2018-11-12T17:03:59.014Z,46.30
2018-11-12T17:09:01.306Z,46.50
2018-11-12T17:14:03.951Z,49.90
2018-11-12T17:19:06.220Z,56.10
2018-11-12T17:24:08.455Z,59.20
2018-11-12T17:29:10.697Z,59.70
2018-11-12T17:34:12.950Z,59.90
2018-11-12T17:39:15.470Z,59.90
2018-11-12T17:44:17.692Z,59.50
2018-11-12T17:49:20.200Z,59.50
2018-11-12T17:54:29.460Z,59.10
2018-11-12T17:59:31.718Z,59.40
2018-11-12T18:04:33.966Z,60.30
2018-11-12T18:09:36.238Z,60.60
2018-11-12T18:14:38.510Z,61.60
2018-11-12T18:19:40.749Z,61.80
2018-11-12T18:24:42.995Z,61.90
2018-11-12T18:29:45.262Z,62.20
2018-11-12T18:34:47.559Z,62.30
2018-11-12T18:39:49.834Z,62.20
2018-11-12T18:44:52.066Z,62.10
2018-11-12T18:49:54.313Z,62.20
2018-11-12T18:54:56.552Z,61.90
2018-11-12T18:59:58.854Z,62.20
2018-11-12T19:05:01.107Z,62.40
2018-11-12T19:10:03.422Z,62.70
2018-11-12T19:15:08.058Z,62.50
2018-11-12T19:20:10.322Z,61.90
2018-11-12T19:25:13.110Z,62.40
2018-11-12T19:30:17.630Z,62.60
2018-11-12T19:35:21.254Z,62.90
2018-11-12T19:40:25.134Z,62.20
2018-11-12T19:45:27.562Z,63.00
2018-11-12T19:50:30.386Z,62.30
2018-11-12T19:55:32.878Z,63.60
2018-11-12T20:00:35.137Z,64.00
2018-11-12T20:05:37.558Z,65.10
2018-11-12T20:10:40.622Z,66.80
2018-11-12T20:15:42.957Z,67.50
2018-11-12T20:20:45.122Z,68.00
2018-11-12T20:25:47.441Z,67.80
2018-11-12T20:30:49.695Z,68.90
2018-11-12T20:35:51.933Z,69.40
2018-11-12T20:40:54.209Z,69.50
2018-11-12T20:45:56.616Z,69.50
2018-11-12T20:50:59.055Z,69.10
2018-11-12T20:56:01.369Z,69.50
2018-11-12T21:01:03.626Z,68.90
2018-11-12T21:06:05.874Z,68.80
2018-11-12T21:11:08.359Z,69.80
2018-11-12T21:16:10.623Z,70.00
2018-11-12T21:21:12.869Z,70.10
2018-11-12T21:26:15.089Z,70.70
2018-11-12T21:31:17.341Z,71.00
2018-11-12T21:36:19.591Z,71.30
2018-11-12T21:41:21.844Z,71.00
2018-11-12T21:46:24.122Z,70.60
2018-11-12T21:51:26.362Z,69.70
2018-11-12T21:56:28.621Z,69.50
2018-11-12T22:01:30.850Z,69.70
2018-11-12T22:06:33.113Z,69.50
2018-11-12T22:11:35.550Z,69.70
2018-11-12T22:16:37.856Z,69.60
2018-11-12T22:21:40.097Z,68.70
2018-11-12T22:26:42.310Z,69.40
2018-11-12T22:31:44.562Z,70.00
2018-11-12T22:36:46.881Z,69.80
2018-11-12T22:41:49.073Z,69.20
2018-11-12T22:46:51.358Z,70.10
2018-11-12T22:51:53.603Z,77.10
2018-11-12T22:56:55.846Z,81.40
2018-11-12T23:01:58.110Z,82.80
2018-11-12T23:07:00.345Z,82.90
2018-11-12T23:12:02.645Z,83.00
2018-11-12T23:17:05.274Z,83.10
2018-11-12T23:22:07.530Z,87.00
2018-11-12T23:27:09.782Z,86.50
2018-11-12T23:32:12.034Z,83.70
2018-11-12T23:37:14.293Z,87.80
2018-11-12T23:42:16.549Z,94.90
2018-11-12T23:47:18.815Z,94.10
2018-11-12T23:52:21.068Z,94.90
2018-11-12T23:57:23.290Z,94.80
